Time;durP1;ratioP1;P1;durP2;ratioP2;P2;SDS_P1;SDS_P2;PMS_P1;PMS_P2;Temp;Humidity;BMP_temperature;BMP_pressure;BME280_temperature;BME280_humidity;BME280_pressure;Samples;Min_cycle;Max_cycle;Signal;HPM_P1;HPM_P2
2023/12/23 00:00:09;;;;;;;4.90;2.20;;;3.30;99.90;;;;;;5024473;28;20570;-63
2023/12/23 00:02:37;;;;;;;4.30;1.40;;;3.20;99.90;;;;;;5026192;28;20580;-61
2023/12/23 00:05:06;;;;;;;4.97;1.43;;;3.30;99.90;;;;;;5030147;28;20561;-62
2023/12/23 00:07:35;;;;;;;4.37;1.13;;;3.30;99.90;;;;;;5027943;28;20893;-62
2023/12/23 00:10:03;;;;;;;6.90;1.70;;;3.40;99.90;;;;;;5030056;28;20487;-61
2023/12/23 00:12:32;;;;;;;5.43;1.80;;;3.40;99.90;;;;;;5020107;28;20541;-62
2023/12/23 00:15:00;;;;;;;4.70;2.27;;;3.40;99.90;;;;;;5021902;28;20491;-62
2023/12/23 00:17:29;;;;;;;4.67;1.40;;;3.40;99.90;;;;;;5027040;28;20513;-62
2023/12/23 00:19:57;;;;;;;3.10;1.33;;;3.40;99.90;;;;;;5028325;28;20905;-63
2023/12/23 00:22:25;;;;;;;8.67;1.30;;;3.40;99.90;;;;;;5025154;28;20570;-62
2023/12/23 00:24:53;;;;;;;6.27;1.67;;;3.40;99.90;;;;;;5048601;23;20495;-67
2023/12/23 00:27:21;;;;;;;6.27;1.20;;;3.40;99.90;;;;;;5022423;28;20511;-66
2023/12/23 00:29:49;;;;;;;6.10;1.20;;;3.40;99.90;;;;;;5026495;28;21075;-66
2023/12/23 00:32:17;;;;;;;5.40;1.77;;;3.40;99.90;;;;;;5020407;28;20503;-66
2023/12/23 00:34:47;;;;;;;4.63;1.10;;;3.40;99.90;;;;;;5024689;28;20537;-66
2023/12/23 00:37:15;;;;;;;6.30;1.33;;;3.40;99.90;;;;;;5021902;28;20493;-66
2023/12/23 00:39:43;;;;;;;4.60;2.03;;;3.40;99.90;;;;;;5022606;28;20459;-66
2023/12/23 00:42:11;;;;;;;4.60;1.47;;;3.40;99.90;;;;;;5014100;28;21011;-66
2023/12/23 00:44:39;;;;;;;6.20;1.80;;;3.40;99.90;;;;;;5025540;28;20558;-66
2023/12/23 00:47:07;;;;;;;3.17;1.30;;;3.30;99.90;;;;;;5027307;28;20453;-66
2023/12/23 00:49:35;;;;;;;4.50;1.33;;;3.30;99.90;;;;;;5044784;28;20646;-70
2023/12/23 00:52:04;;;;;;;3.50;1.40;;;3.30;99.90;;;;;;5033720;28;20790;-69
2023/12/23 00:54:32;;;;;;;4.97;1.40;;;3.30;99.90;;;;;;5023080;28;20468;-69
2023/12/23 00:57:00;;;;;;;4.10;1.77;;;3.30;99.90;;;;;;5027238;28;20582;-69
2023/12/23 00:59:28;;;;;;;4.40;1.83;;;3.30;99.90;;;;;;5024557;28;20541;-66
2023/12/23 01:01:56;;;;;;;7.03;1.37;;;3.30;99.90;;;;;;5022491;28;20939;-66
2023/12/23 01:04:24;;;;;;;3.90;0.80;;;3.20;99.90;;;;;;5018139;28;20926;-66
2023/12/23 01:06:52;;;;;;;4.30;1.43;;;3.20;99.90;;;;;;5027949;28;20530;-65
2023/12/23 01:09:22;;;;;;;8.27;1.67;;;3.20;99.90;;;;;;5020615;28;20590;-66
2023/12/23 01:11:50;;;;;;;4.60;1.50;;;3.20;99.90;;;;;;5021361;28;20533;-66
2023/12/23 01:14:18;;;;;;;2.30;1.90;;;3.20;99.90;;;;;;5018487;28;20579;-66
2023/12/23 01:16:46;;;;;;;2.97;1.27;;;3.20;99.90;;;;;;5018147;28;20511;-66
2023/12/23 01:19:14;;;;;;;3.70;1.30;;;3.10;99.90;;;;;;5023633;28;20478;-66
2023/12/23 01:21:42;;;;;;;4.43;1.20;;;3.10;99.90;;;;;;5021806;28;20548;-66
2023/12/23 01:24:10;;;;;;;5.87;1.50;;;3.20;99.90;;;;;;5020940;28;20559;-69
2023/12/23 01:26:39;;;;;;;3.73;1.23;;;3.10;99.90;;;;;;5020976;28;20597;-67
2023/12/23 01:29:07;;;;;;;4.20;1.30;;;3.10;99.90;;;;;;5022563;28;20471;-69
2023/12/23 01:31:35;;;;;;;4.20;1.50;;;3.10;99.90;;;;;;5017820;28;20519;-67
2023/12/23 01:34:03;;;;;;;2.17;1.20;;;3.10;99.90;;;;;;5022051;28;20474;-67
2023/12/23 01:36:31;;;;;;;9.47;2.00;;;3.10;99.90;;;;;;5024086;28;20495;-67
2023/12/23 01:38:59;;;;;;;5.57;2.57;;;3.10;99.90;;;;;;5021960;28;20565;-67
2023/12/23 01:41:27;;;;;;;3.40;1.37;;;3.10;99.90;;;;;;5021444;28;20825;-67
2023/12/23 01:43:56;;;;;;;3.17;1.73;;;3.00;99.90;;;;;;5022951;28;20479;-67
2023/12/23 01:46:25;;;;;;;4.33;1.57;;;3.00;99.90;;;;;;5023345;28;20496;-67
2023/12/23 01:48:55;;;;;;;6.87;1.50;;;3.00;99.90;;;;;;5024567;28;20516;-67
2023/12/23 01:51:23;;;;;;;3.63;1.50;;;3.10;99.90;;;;;;5023659;28;20853;-67
2023/12/23 01:53:51;;;;;;;6.63;1.50;;;3.10;99.90;;;;;;5024237;28;20518;-67
2023/12/23 01:56:19;;;;;;;7.03;1.17;;;3.20;99.90;;;;;;5023810;28;20975;-67
2023/12/23 01:58:47;;;;;;;4.70;1.30;;;3.30;99.90;;;;;;5021425;28;20475;-67
2023/12/23 02:01:17;;;;;;;5.50;1.23;;;3.30;99.90;;;;;;5020406;28;20517;-67
2023/12/23 02:03:46;;;;;;;3.40;1.40;;;3.40;99.90;;;;;;5021234;28;20639;-67
2023/12/23 02:06:14;;;;;;;4.63;2.13;;;3.40;99.90;;;;;;5021762;28;20578;-67
2023/12/23 02:08:42;;;;;;;4.60;1.40;;;3.40;99.90;;;;;;5021669;28;20964;-67
2023/12/23 02:11:18;;;;;;;4.03;1.13;;;3.40;99.90;;;;;;5011561;28;20492;-67
2023/12/23 02:13:52;;;;;;;2.83;1.10;;;3.40;99.90;;;;;;5017554;28;20483;-67
2023/12/23 02:16:23;;;;;;;4.37;1.50;;;3.40;99.90;;;;;;5020009;28;20529;-67
2023/12/23 02:18:53;;;;;;;4.87;1.20;;;3.40;99.90;;;;;;5021435;28;20542;-67
2023/12/23 02:21:23;;;;;;;5.50;1.30;;;3.40;99.90;;;;;;5017711;28;21306;-68
2023/12/23 02:23:51;;;;;;;6.10;1.23;;;3.40;99.90;;;;;;5020427;28;20490;-67
2023/12/23 02:26:21;;;;;;;9.20;1.40;;;3.40;99.90;;;;;;5021288;28;20577;-67
2023/12/23 02:28:52;;;;;;;4.10;1.73;;;3.50;99.90;;;;;;5022009;28;20472;-67
2023/12/23 02:31:21;;;;;;;5.20;1.77;;;3.50;99.90;;;;;;5019648;28;20932;-67
2023/12/23 02:33:50;;;;;;;2.53;1.30;;;3.50;99.90;;;;;;5017222;28;20482;-67
2023/12/23 02:36:22;;;;;;;4.33;1.23;;;3.50;99.90;;;;;;5024636;28;20522;-67
2023/12/23 02:38:50;;;;;;;5.17;1.37;;;3.50;99.90;;;;;;5022486;28;20526;-69
2023/12/23 02:41:18;;;;;;;5.53;1.83;;;3.60;99.90;;;;;;5014976;28;20543;-66
2023/12/23 02:43:46;;;;;;;4.93;1.27;;;3.60;99.90;;;;;;5022276;28;20502;-66
2023/12/23 02:46:14;;;;;;;4.13;1.83;;;3.60;99.90;;;;;;5021344;28;20579;-66
2023/12/23 02:48:42;;;;;;;6.90;1.57;;;3.70;99.90;;;;;;5021012;28;20471;-66
2023/12/23 02:51:10;;;;;;;4.60;1.57;;;3.70;99.90;;;;;;5023923;28;20887;-67
2023/12/23 02:53:40;;;;;;;5.10;1.83;;;3.70;99.90;;;;;;5019861;28;20578;-66
2023/12/23 02:56:08;;;;;;;8.33;1.60;;;3.70;99.90;;;;;;5025832;28;20594;-67
2023/12/23 02:58:36;;;;;;;4.03;1.40;;;3.70;99.90;;;;;;5040835;28;20514;-66
2023/12/23 03:01:07;;;;;;;6.73;1.27;;;3.70;99.90;;;;;;5041199;28;20937;-67
2023/12/23 03:03:35;;;;;;;4.60;1.40;;;3.70;99.90;;;;;;5021545;28;20833;-66
2023/12/23 03:06:04;;;;;;;4.90;1.50;;;3.70;99.90;;;;;;5025796;28;21080;-66
2023/12/23 03:08:32;;;;;;;6.83;2.13;;;3.80;99.90;;;;;;5024777;28;20558;-66
2023/12/23 03:11:01;;;;;;;5.57;2.00;;;3.80;99.90;;;;;;5020698;28;20549;-66
2023/12/23 03:13:29;;;;;;;6.63;1.90;;;3.80;99.90;;;;;;5021267;28;20561;-66
2023/12/23 03:15:57;;;;;;;4.33;1.43;;;3.80;99.90;;;;;;5016331;28;20590;-67
2023/12/23 03:18:25;;;;;;;4.03;1.20;;;3.80;99.90;;;;;;5019358;28;20954;-66
2023/12/23 03:20:53;;;;;;;3.27;1.07;;;3.80;99.90;;;;;;5022889;28;20471;-66
2023/12/23 03:23:21;;;;;;;5.70;1.43;;;3.80;99.90;;;;;;5024240;28;20479;-68
2023/12/23 03:25:50;;;;;;;5.33;1.50;;;3.90;99.90;;;;;;5021170;28;20505;-66
2023/12/23 03:28:19;;;;;;;4.20;1.50;;;3.90;99.90;;;;;;5021661;28;20464;-66
2023/12/23 03:30:47;;;;;;;5.97;1.50;;;3.90;99.90;;;;;;5023313;28;20493;-66
2023/12/23 03:33:16;;;;;;;6.63;1.10;;;3.90;99.90;;;;;;5023703;28;20621;-67
2023/12/23 03:35:44;;;;;;;5.30;1.13;;;4.00;99.90;;;;;;5020245;28;21014;-67
2023/12/23 03:38:12;;;;;;;7.90;1.50;;;4.00;99.90;;;;;;5021583;28;20475;-67
2023/12/23 03:40:40;;;;;;;5.50;2.27;;;4.00;99.90;;;;;;5024790;28;20508;-66
2023/12/23 03:43:08;;;;;;;4.93;1.47;;;4.00;99.90;;;;;;5023238;28;20513;-66
2023/12/23 03:45:38;;;;;;;4.37;1.37;;;4.00;99.90;;;;;;5025254;28;20561;-66
2023/12/23 03:48:07;;;;;;;5.23;1.20;;;4.00;99.90;;;;;;5027302;28;20473;-66
2023/12/23 03:50:35;;;;;;;3.80;1.20;;;4.00;99.90;;;;;;5024612;28;20560;-66
2023/12/23 03:53:04;;;;;;;3.07;1.00;;;4.10;99.90;;;;;;5022696;28;20518;-66
2023/12/23 03:55:32;;;;;;;5.43;1.47;;;4.10;99.90;;;;;;5027531;28;20502;-67
2023/12/23 03:58:00;;;;;;;5.23;1.40;;;4.10;99.90;;;;;;5026230;28;20945;-66
2023/12/23 04:00:28;;;;;;;2.80;1.10;;;4.20;99.90;;;;;;5019038;28;20471;-66
2023/12/23 04:02:58;;;;;;;2.20;0.87;;;4.20;99.90;;;;;;5025253;28;20487;-68
2023/12/23 04:05:26;;;;;;;5.87;1.93;;;4.10;99.90;;;;;;5027851;28;20868;-66
2023/12/23 04:07:54;;;;;;;3.97;1.13;;;4.10;99.90;;;;;;5022408;28;20474;-68
2023/12/23 04:10:22;;;;;;;2.77;0.97;;;4.00;99.90;;;;;;5023217;28;20544;-69
2023/12/23 04:12:51;;;;;;;1.83;0.77;;;4.00;99.90;;;;;;5021746;28;20478;-68
2023/12/23 04:15:19;;;;;;;3.73;1.27;;;3.90;99.90;;;;;;5023550;28;20499;-66
2023/12/23 04:17:47;;;;;;;3.60;1.10;;;3.80;99.90;;;;;;5024469;28;21305;-69
2023/12/23 04:20:17;;;;;;;3.40;1.10;;;3.80;99.90;;;;;;5021837;28;20475;-66
2023/12/23 04:22:47;;;;;;;3.53;0.73;;;3.70;99.90;;;;;;5019858;28;20591;-66
2023/12/23 04:25:16;;;;;;;3.03;0.90;;;3.60;99.90;;;;;;5026499;28;20495;-67
2023/12/23 04:27:51;;;;;;;3.73;0.80;;;3.60;99.90;;;;;;5025139;28;20467;-66
2023/12/23 04:30:19;;;;;;;1.27;0.90;;;3.60;99.90;;;;;;5021732;28;20948;-67
2023/12/23 04:32:48;;;;;;;5.23;0.97;;;3.50;99.90;;;;;;5024471;28;20626;-66
2023/12/23 04:35:18;;;;;;;1.63;0.97;;;3.60;99.90;;;;;;5022662;28;20491;-66
2023/12/23 04:37:46;;;;;;;3.90;1.20;;;3.60;99.90;;;;;;5022152;28;20494;-66
2023/12/23 04:40:15;;;;;;;8.00;1.40;;;3.60;99.90;;;;;;5018239;28;20476;-67
2023/12/23 04:42:44;;;;;;;1.63;0.73;;;3.60;99.90;;;;;;5021644;28;20573;-67
2023/12/23 04:45:12;;;;;;;1.63;0.83;;;3.60;99.90;;;;;;5022007;28;20491;-67
2023/12/23 04:47:39;;;;;;;3.57;1.00;;;3.60;99.90;;;;;;5022359;28;20614;-66
2023/12/23 04:50:08;;;;;;;4.77;0.90;;;3.60;99.90;;;;;;5021859;28;20565;-66
2023/12/23 04:52:38;;;;;;;2.70;0.67;;;3.60;99.90;;;;;;5019073;28;21020;-66
2023/12/23 04:55:09;;;;;;;2.70;1.80;;;3.70;99.90;;;;;;5022812;28;20491;-66
2023/12/23 04:57:38;;;;;;;2.47;0.80;;;3.70;99.90;;;;;;5023678;28;20499;-66
2023/12/23 05:00:07;;;;;;;3.13;0.77;;;3.70;99.90;;;;;;5024229;28;20560;-66
2023/12/23 05:02:35;;;;;;;3.37;1.00;;;3.80;99.90;;;;;;5023217;28;20491;-66
2023/12/23 05:05:03;;;;;;;1.63;0.80;;;3.80;99.90;;;;;;5019792;28;20583;-66
2023/12/23 05:07:31;;;;;;;3.97;0.90;;;3.80;99.90;;;;;;5033201;28;20583;-66
2023/12/23 05:10:01;;;;;;;2.30;1.00;;;3.80;99.90;;;;;;5044638;28;20535;-66
2023/12/23 05:12:29;;;;;;;2.30;0.97;;;3.70;99.90;;;;;;5030738;28;20484;-67
2023/12/23 05:14:57;;;;;;;1.87;0.80;;;3.70;99.90;;;;;;5019237;28;20876;-66
2023/12/23 05:17:24;;;;;;;3.63;1.27;;;3.70;99.90;;;;;;5019880;28;20559;-66
2023/12/23 05:19:54;;;;;;;4.37;1.60;;;3.70;99.90;;;;;;5024205;28;20550;-67
2023/12/23 05:22:22;;;;;;;2.37;0.90;;;3.70;99.90;;;;;;5020018;28;20630;-69
2023/12/23 05:24:50;;;;;;;3.60;1.10;;;3.70;99.90;;;;;;5023850;28;20863;-66
2023/12/23 05:27:19;;;;;;;3.23;0.90;;;3.60;99.90;;;;;;5023952;28;20843;-67
2023/12/23 05:29:47;;;;;;;2.40;1.07;;;3.60;99.90;;;;;;5020616;28;20540;-67
2023/12/23 05:32:15;;;;;;;1.87;1.00;;;3.70;99.90;;;;;;5019246;28;20565;-66
2023/12/23 05:34:43;;;;;;;3.70;0.90;;;3.70;99.90;;;;;;5016654;28;20475;-67
2023/12/23 05:37:11;;;;;;;1.20;0.77;;;3.70;99.90;;;;;;5026487;28;20483;-66
2023/12/23 05:39:40;;;;;;;5.30;1.13;;;3.70;99.90;;;;;;5022433;28;20479;-66
2023/12/23 05:42:08;;;;;;;4.10;0.90;;;3.70;99.90;;;;;;5024421;28;20487;-66
2023/12/23 05:44:38;;;;;;;2.40;0.97;;;3.70;99.90;;;;;;5022155;28;20550;-67
2023/12/23 05:47:06;;;;;;;5.67;1.10;;;3.70;99.90;;;;;;5022466;28;20560;-66
2023/12/23 05:49:34;;;;;;;6.77;1.00;;;3.60;99.90;;;;;;5021169;28;20570;-66
2023/12/23 05:52:02;;;;;;;2.20;0.90;;;3.60;99.90;;;;;;5017685;28;20577;-66
2023/12/23 05:54:29;;;;;;;2.13;0.97;;;3.60;99.90;;;;;;5022535;28;21016;-66
2023/12/23 05:56:57;;;;;;;3.60;1.50;;;3.60;99.90;;;;;;5028583;28;20579;-66
2023/12/23 05:59:25;;;;;;;5.57;1.07;;;3.60;99.90;;;;;;5025112;28;20476;-66
2023/12/23 06:01:55;;;;;;;2.90;1.00;;;3.60;99.90;;;;;;5021285;28;20523;-66
2023/12/23 06:04:23;;;;;;;2.33;1.07;;;3.60;99.90;;;;;;5015843;28;20507;-66
2023/12/23 06:06:51;;;;;;;3.00;1.50;;;3.60;99.90;;;;;;5022243;28;20487;-66
2023/12/23 06:09:19;;;;;;;6.07;1.30;;;3.70;99.90;;;;;;5026500;28;20821;-66
2023/12/23 06:11:47;;;;;;;2.40;1.00;;;3.70;99.90;;;;;;5016829;28;20567;-66
2023/12/23 06:14:16;;;;;;;2.13;1.33;;;3.60;99.90;;;;;;5022017;28;20494;-66
2023/12/23 06:16:44;;;;;;;1.70;0.90;;;3.70;99.90;;;;;;5022201;28;20494;-66
2023/12/23 06:19:13;;;;;;;5.43;1.13;;;3.70;99.90;;;;;;5023700;28;20566;-66
2023/12/23 06:21:45;;;;;;;2.50;1.67;;;3.70;99.90;;;;;;5023312;28;21026;-67
2023/12/23 06:24:14;;;;;;;2.50;1.07;;;3.70;99.90;;;;;;5023003;28;21231;-67
2023/12/23 06:26:42;;;;;;;2.80;1.00;;;3.70;99.90;;;;;;5018515;22;20544;-63
2023/12/23 06:29:13;;;;;;;3.43;1.10;;;3.70;99.90;;;;;;4986757;28;20487;-64
2023/12/23 06:31:41;;;;;;;5.97;1.77;;;3.70;99.90;;;;;;4982377;28;20910;-63
2023/12/23 06:34:09;;;;;;;2.77;1.00;;;3.80;99.90;;;;;;4983697;28;20879;-64
2023/12/23 06:36:38;;;;;;;2.03;0.90;;;3.70;99.90;;;;;;4986982;28;21024;-64
2023/12/23 06:39:06;;;;;;;6.20;1.23;;;3.70;99.90;;;;;;4985693;28;20561;-63
2023/12/23 06:41:34;;;;;;;1.60;0.97;;;3.70;99.90;;;;;;4984037;28;20490;-64
2023/12/23 06:44:02;;;;;;;1.37;0.73;;;3.70;99.90;;;;;;4983222;28;20556;-63
2023/12/23 06:46:30;;;;;;;1.73;0.90;;;3.70;99.90;;;;;;4976093;28;20498;-63
2023/12/23 06:48:58;;;;;;;1.30;1.00;;;3.60;99.90;;;;;;4984797;28;20933;-64
2023/12/23 06:51:26;;;;;;;0.93;0.73;;;3.60;99.90;;;;;;4988324;28;20552;-63
2023/12/23 06:53:56;;;;;;;2.10;0.90;;;3.50;99.90;;;;;;4981521;28;21045;-63
2023/12/23 06:56:24;;;;;;;2.63;1.00;;;3.50;99.90;;;;;;4982701;28;20529;-64
2023/12/23 06:58:52;;;;;;;1.10;1.00;;;3.50;99.90;;;;;;4978784;28;20986;-63
2023/12/23 07:01:20;;;;;;;1.80;0.93;;;3.40;99.90;;;;;;4980473;28;20485;-62
2023/12/23 07:03:48;;;;;;;1.23;1.00;;;3.40;99.90;;;;;;4980480;28;20555;-63
2023/12/23 07:06:16;;;;;;;2.30;0.80;;;3.40;99.90;;;;;;4985825;28;20496;-63
2023/12/23 07:08:44;;;;;;;2.87;0.80;;;3.40;99.90;;;;;;4990167;28;20562;-64
2023/12/23 07:11:14;;;;;;;1.67;0.80;;;3.30;99.90;;;;;;4987304;28;20488;-64
2023/12/23 07:13:42;;;;;;;1.97;0.70;;;3.30;99.90;;;;;;4987643;28;20576;-63
2023/12/23 07:16:10;;;;;;;2.13;1.00;;;3.20;99.90;;;;;;4983408;28;20488;-64
2023/12/23 07:18:38;;;;;;;1.70;0.80;;;3.20;99.90;;;;;;4992015;28;20476;-64
2023/12/23 07:21:06;;;;;;;1.30;0.83;;;3.20;99.90;;;;;;4991076;28;20480;-64
2023/12/23 07:23:34;;;;;;;4.07;1.00;;;3.10;99.90;;;;;;4990925;28;20921;-64
2023/12/23 07:26:04;;;;;;;1.53;0.73;;;3.00;99.90;;;;;;4984314;28;20531;-63
2023/12/23 07:28:33;;;;;;;0.70;0.70;;;3.00;99.90;;;;;;4988252;28;20465;-64
2023/12/23 07:31:01;;;;;;;1.13;0.70;;;3.00;99.90;;;;;;4988229;28;20956;-63
2023/12/23 07:33:29;;;;;;;0.83;0.80;;;3.00;99.90;;;;;;4987734;28;20620;-63
2023/12/23 07:35:57;;;;;;;2.10;0.80;;;2.90;99.90;;;;;;4990099;28;21092;-63
2023/12/23 07:38:25;;;;;;;1.50;0.90;;;2.90;99.90;;;;;;4989380;28;20886;-63
2023/12/23 07:40:54;;;;;;;0.93;0.70;;;2.90;99.90;;;;;;4994886;28;20484;-63
2023/12/23 07:43:22;;;;;;;1.87;0.97;;;2.80;99.90;;;;;;4986673;28;20512;-64
2023/12/23 07:45:51;;;;;;;2.20;0.87;;;2.70;99.90;;;;;;4984171;28;20573;-63
2023/12/23 07:48:19;;;;;;;2.10;1.03;;;2.70;99.90;;;;;;4984139;28;20465;-63
2023/12/23 07:50:47;;;;;;;1.27;0.80;;;2.70;99.90;;;;;;4983568;28;20480;-63
2023/12/23 07:53:15;;;;;;;1.53;1.00;;;2.70;99.90;;;;;;4984020;28;21148;-63
2023/12/23 07:55:43;;;;;;;1.47;0.90;;;2.70;99.90;;;;;;4986085;28;20539;-63
2023/12/23 07:58:11;;;;;;;1.33;1.00;;;2.70;99.90;;;;;;4983866;28;20477;-63
2023/12/23 08:00:39;;;;;;;1.17;0.90;;;2.70;99.90;;;;;;4985005;28;20471;-62
2023/12/23 08:03:09;;;;;;;2.57;0.80;;;2.60;99.90;;;;;;4988074;28;20489;-63
2023/12/23 08:05:37;;;;;;;0.90;0.90;;;2.60;99.90;;;;;;4984900;28;20551;-62
2023/12/23 08:08:07;;;;;;;1.37;1.17;;;2.60;99.90;;;;;;4986389;28;20978;-63
2023/12/23 08:10:35;;;;;;;1.60;0.80;;;2.60;99.90;;;;;;4986235;28;20475;-63
2023/12/23 08:13:03;;;;;;;1.27;1.10;;;2.60;99.90;;;;;;4983912;28;21313;-63
2023/12/23 08:15:31;;;;;;;1.80;1.17;;;2.60;99.90;;;;;;4989985;28;20532;-63
2023/12/23 08:17:59;;;;;;;2.57;1.30;;;2.60;99.90;;;;;;4988418;28;20555;-64
2023/12/23 08:20:29;;;;;;;1.20;1.10;;;2.60;99.90;;;;;;4989929;28;21067;-62
2023/12/23 08:22:57;;;;;;;2.10;1.13;;;2.60;99.90;;;;;;4985436;28;20490;-63
2023/12/23 08:25:25;;;;;;;1.60;1.50;;;2.60;99.90;;;;;;4978030;28;20507;-63
2023/12/23 08:27:53;;;;;;;1.50;1.37;;;2.60;99.90;;;;;;4980576;28;20465;-63
2023/12/23 08:30:21;;;;;;;1.60;1.50;;;2.50;99.90;;;;;;4980229;28;20564;-63
2023/12/23 08:32:49;;;;;;;1.40;1.10;;;2.50;99.90;;;;;;4981656;28;20525;-63
2023/12/23 08:35:17;;;;;;;1.50;1.40;;;2.50;99.90;;;;;;4981437;28;20497;-63
2023/12/23 08:37:47;;;;;;;1.83;1.40;;;2.50;99.90;;;;;;4985341;28;20473;-63
2023/12/23 08:40:16;;;;;;;2.53;1.73;;;2.60;99.90;;;;;;4986179;28;20469;-63
2023/12/23 08:42:44;;;;;;;2.73;1.70;;;2.60;99.90;;;;;;4977812;28;20520;-63
2023/12/23 08:45:12;;;;;;;1.73;1.53;;;2.60;99.90;;;;;;4986231;28;20466;-63
2023/12/23 08:47:40;;;;;;;1.50;1.40;;;2.60;99.90;;;;;;4987258;28;20572;-63
2023/12/23 08:50:08;;;;;;;3.40;1.80;;;2.50;99.90;;;;;;4987704;28;20480;-63
2023/12/23 08:52:36;;;;;;;1.83;1.73;;;2.50;99.90;;;;;;4985759;28;20485;-64
2023/12/23 08:55:07;;;;;;;1.97;1.50;;;2.50;99.90;;;;;;4990089;28;20485;-63
2023/12/23 08:57:35;;;;;;;4.03;2.00;;;2.50;99.90;;;;;;4989219;28;20473;-63
2023/12/23 09:00:06;;;;;;;1.80;1.70;;;2.50;99.90;;;;;;4987889;28;20547;-63
2023/12/23 09:02:34;;;;;;;1.97;1.87;;;2.50;99.90;;;;;;4983737;28;20941;-64
2023/12/23 09:05:02;;;;;;;2.77;1.87;;;2.50;99.90;;;;;;4988986;28;20640;-64
2023/12/23 09:07:30;;;;;;;2.77;2.10;;;2.60;99.90;;;;;;4981884;28;20977;-64
2023/12/23 09:10:01;;;;;;;3.20;2.07;;;2.60;99.90;;;;;;4986474;28;20563;-64
2023/12/23 09:12:30;;;;;;;2.70;2.17;;;2.60;99.90;;;;;;4984766;28;20920;-63
2023/12/23 09:14:58;;;;;;;2.07;1.73;;;2.60;99.90;;;;;;4984727;28;21158;-62
2023/12/23 09:17:26;;;;;;;4.10;1.87;;;2.60;99.90;;;;;;4993320;28;20473;-63
2023/12/23 09:19:56;;;;;;;2.63;1.73;;;2.60;99.90;;;;;;4988081;28;20548;-63
2023/12/23 09:22:24;;;;;;;3.27;1.80;;;2.70;99.90;;;;;;4992303;28;20603;-63
2023/12/23 09:24:52;;;;;;;2.80;1.80;;;2.70;99.90;;;;;;4989910;28;21270;-63
2023/12/23 09:27:20;;;;;;;2.47;2.27;;;2.70;99.90;;;;;;4989480;28;20583;-63
2023/12/23 09:29:50;;;;;;;2.33;2.07;;;2.70;99.90;;;;;;4990347;28;20571;-63
2023/12/23 09:32:21;;;;;;;2.90;2.27;;;2.80;99.90;;;;;;4988236;28;20491;-63
2023/12/23 09:34:49;;;;;;;4.17;2.60;;;2.80;99.90;;;;;;4986653;28;20489;-64
2023/12/23 09:37:17;;;;;;;4.27;2.23;;;2.80;99.90;;;;;;4984363;28;21023;-63
2023/12/23 09:39:45;;;;;;;4.47;2.00;;;2.80;99.90;;;;;;4988593;28;20569;-63
2023/12/23 09:42:13;;;;;;;4.53;2.17;;;2.80;99.90;;;;;;4986587;28;20525;-63
2023/12/23 09:44:41;;;;;;;3.20;2.00;;;2.80;99.90;;;;;;4984097;28;20528;-64
2023/12/23 09:47:11;;;;;;;2.33;2.00;;;2.80;99.90;;;;;;4983588;28;20493;-62
2023/12/23 09:49:39;;;;;;;2.03;1.80;;;2.90;99.90;;;;;;4987729;28;20472;-63
2023/12/23 09:52:07;;;;;;;2.30;2.07;;;2.90;99.90;;;;;;4986475;28;20515;-62
2023/12/23 09:54:40;;;;;;;2.40;1.73;;;2.90;99.90;;;;;;4982139;28;20507;-64
2023/12/23 09:57:08;;;;;;;2.33;2.00;;;2.90;99.90;;;;;;4988535;28;20551;-64
2023/12/23 09:59:36;;;;;;;2.20;1.93;;;2.90;99.90;;;;;;4988620;28;20892;-64
2023/12/23 10:02:04;;;;;;;2.03;1.70;;;3.00;99.90;;;;;;4989305;28;21027;-64
2023/12/23 10:04:34;;;;;;;3.03;2.10;;;3.00;99.90;;;;;;4982148;28;20477;-64
2023/12/23 10:07:03;;;;;;;3.37;2.60;;;3.00;99.90;;;;;;4987884;28;20493;-64
2023/12/23 10:09:32;;;;;;;2.77;2.20;;;3.10;99.90;;;;;;4988244;28;20552;-63
2023/12/23 10:12:01;;;;;;;2.57;2.07;;;3.10;99.90;;;;;;4984429;28;20568;-64
2023/12/23 10:14:29;;;;;;;2.83;1.97;;;3.10;99.90;;;;;;4986921;28;20861;-64
2023/12/23 10:16:57;;;;;;;2.83;2.23;;;3.20;99.90;;;;;;4987015;28;20491;-63
2023/12/23 10:19:25;;;;;;;3.23;2.00;;;3.20;99.90;;;;;;4986985;28;21023;-62
2023/12/23 10:21:55;;;;;;;3.10;1.90;;;3.20;99.90;;;;;;4989447;28;20603;-64
2023/12/23 10:24:23;;;;;;;2.03;1.83;;;3.20;99.90;;;;;;4986369;28;20814;-64
2023/12/23 10:26:51;;;;;;;4.03;2.10;;;3.30;99.90;;;;;;4986551;28;20536;-64
2023/12/23 10:29:21;;;;;;;3.77;2.30;;;3.30;99.90;;;;;;4989595;28;20564;-64
2023/12/23 10:31:52;;;;;;;2.77;1.90;;;3.30;99.90;;;;;;4983989;28;20482;-64
2023/12/23 10:34:22;;;;;;;2.37;2.03;;;3.40;99.90;;;;;;4985833;28;20469;-64
2023/12/23 10:36:53;;;;;;;3.20;2.30;;;3.40;99.90;;;;;;4983843;28;20986;-64
2023/12/23 10:39:28;;;;;;;3.67;1.80;;;3.40;99.90;;;;;;4986766;28;20564;-63
2023/12/23 10:41:58;;;;;;;3.07;1.83;;;3.40;99.90;;;;;;4985402;28;21076;-64
2023/12/23 10:44:28;;;;;;;2.63;2.43;;;3.40;99.90;;;;;;4984946;28;20501;-64
2023/12/23 10:46:57;;;;;;;2.53;1.90;;;3.40;99.90;;;;;;4980045;28;20509;-64
2023/12/23 10:49:26;;;;;;;2.23;2.00;;;3.50;99.90;;;;;;4983981;28;21029;-64
2023/12/23 10:51:55;;;;;;;2.53;2.30;;;3.50;99.90;;;;;;4987219;28;20481;-64
2023/12/23 10:54:27;;;;;;;2.83;1.90;;;3.50;99.90;;;;;;4985938;28;20476;-64
2023/12/23 10:56:57;;;;;;;4.93;1.83;;;3.50;99.90;;;;;;4983666;28;20930;-64
2023/12/23 10:59:25;;;;;;;3.53;1.90;;;3.60;99.90;;;;;;4986274;28;20477;-64
2023/12/23 11:01:56;;;;;;;2.70;1.90;;;3.60;99.90;;;;;;4986776;28;20543;-64
2023/12/23 11:04:26;;;;;;;3.20;1.80;;;3.60;99.90;;;;;;4986318;28;20469;-64
2023/12/23 11:06:58;;;;;;;6.80;2.13;;;3.60;99.90;;;;;;4981707;28;22384;-62
2023/12/23 11:09:30;;;;;;;3.40;1.90;;;3.70;99.90;;;;;;4979995;28;20469;-62
2023/12/23 11:11:59;;;;;;;2.77;1.50;;;3.70;99.90;;;;;;4975241;28;20486;-64
2023/12/23 11:14:27;;;;;;;1.50;1.27;;;3.80;99.90;;;;;;4978955;28;20551;-64
2023/12/23 11:16:57;;;;;;;4.10;1.90;;;3.80;99.90;;;;;;4976023;28;20497;-62
2023/12/23 11:19:26;;;;;;;1.60;1.20;;;3.80;99.90;;;;;;4981303;28;20473;-64
2023/12/23 11:22:22;;;;;;;1.20;0.90;;;3.90;99.90;;;;;;4981087;28;20495;-64
2023/12/23 11:24:52;;;;;;;1.20;1.10;;;3.90;99.90;;;;;;4984518;28;20492;-63
2023/12/23 11:27:33;;;;;;;1.47;1.30;;;3.90;99.90;;;;;;4980665;28;20591;-63
2023/12/23 11:30:03;;;;;;;2.10;1.33;;;4.00;99.90;;;;;;4982918;28;20477;-64
2023/12/23 11:32:36;;;;;;;5.10;1.43;;;4.00;99.90;;;;;;4982368;28;21057;-64
2023/12/23 11:35:06;;;;;;;2.00;1.30;;;4.00;99.90;;;;;;4979962;28;20588;-64
2023/12/23 11:37:52;;;;;;;1.60;1.33;;;4.00;99.90;;;;;;4980751;28;20477;-64
2023/12/23 11:40:22;;;;;;;1.73;1.63;;;4.00;99.90;;;;;;4986035;28;20472;-63
2023/12/23 11:42:51;;;;;;;1.70;1.37;;;4.00;99.90;;;;;;4979233;28;20509;-64
2023/12/23 11:45:19;;;;;;;2.70;1.53;;;4.00;99.90;;;;;;4977228;28;20488;-62
2023/12/23 11:47:48;;;;;;;1.47;1.37;;;4.00;99.90;;;;;;4981523;28;20476;-64
2023/12/23 11:50:16;;;;;;;1.73;1.63;;;4.00;99.90;;;;;;4979617;28;20476;-63
2023/12/23 11:52:46;;;;;;;3.63;1.83;;;4.00;99.90;;;;;;4988026;28;20487;-63
2023/12/23 11:55:16;;;;;;;3.03;1.90;;;4.00;99.90;;;;;;4987629;28;20493;-64
2023/12/23 11:57:45;;;;;;;2.43;1.63;;;4.00;99.90;;;;;;4987268;28;20469;-63
2023/12/23 12:00:14;;;;;;;2.47;1.60;;;4.00;99.90;;;;;;4967373;28;20560;-63
2023/12/23 12:02:42;;;;;;;2.73;1.80;;;4.10;99.90;;;;;;4979230;28;20508;-62
2023/12/23 12:05:10;;;;;;;2.13;1.90;;;4.10;99.90;;;;;;4955509;28;21261;-62
2023/12/23 12:07:39;;;;;;;2.40;2.20;;;4.10;99.90;;;;;;4952746;28;20469;-63
2023/12/23 12:10:08;;;;;;;2.27;1.97;;;4.20;99.90;;;;;;4964151;28;20481;-61
2023/12/23 12:12:36;;;;;;;2.97;1.87;;;4.10;99.90;;;;;;4966046;28;20499;-62
2023/12/23 12:15:07;;;;;;;2.20;1.80;;;4.20;99.90;;;;;;4975935;28;20465;-62
2023/12/23 12:17:34;;;;;;;2.43;2.10;;;4.20;99.90;;;;;;4978772;28;20564;-62
2023/12/23 12:20:03;;;;;;;2.43;1.50;;;4.30;99.90;;;;;;4971311;28;20477;-62
2023/12/23 12:22:32;;;;;;;3.40;1.50;;;4.30;99.90;;;;;;4972795;28;20500;-63
2023/12/23 12:25:00;;;;;;;2.63;1.50;;;4.40;99.90;;;;;;4973205;28;20846;-63
2023/12/23 12:27:29;;;;;;;1.47;1.30;;;4.30;99.90;;;;;;4976958;28;20595;-65
2023/12/23 12:29:57;;;;;;;3.17;1.43;;;4.40;99.90;;;;;;4982141;28;20576;-66
2023/12/23 12:32:26;;;;;;;3.57;2.00;;;4.40;99.90;;;;;;4965992;28;20483;-65
2023/12/23 12:35:01;;;;;;;4.73;1.90;;;4.40;99.90;;;;;;4976353;28;20473;-65
2023/12/23 12:37:29;;;;;;;1.40;1.30;;;4.40;99.90;;;;;;4976872;28;20528;-65
2023/12/23 12:39:58;;;;;;;3.60;1.47;;;4.40;99.90;;;;;;4977853;28;20527;-67
2023/12/23 12:42:30;;;;;;;2.47;2.27;;;4.40;99.90;;;;;;4976313;28;20997;-66
2023/12/23 12:45:01;;;;;;;2.30;1.40;;;4.40;99.90;;;;;;4965942;28;20620;-65
2023/12/23 12:47:30;;;;;;;2.27;1.50;;;4.40;99.90;;;;;;4975937;28;20498;-66
2023/12/23 12:50:01;;;;;;;2.40;2.20;;;4.40;99.90;;;;;;4979222;28;20517;-65
2023/12/23 12:52:35;;;;;;;1.20;1.10;;;4.50;99.90;;;;;;4972573;28;20575;-65
2023/12/23 12:55:05;;;;;;;1.53;1.23;;;4.50;99.90;;;;;;4971502;28;20962;-65
2023/12/23 12:57:33;;;;;;;1.27;1.00;;;4.50;99.90;;;;;;4974675;28;20543;-65
2023/12/23 13:00:07;;;;;;;2.33;2.13;;;4.60;99.90;;;;;;4975178;28;20505;-65
2023/12/23 13:02:37;;;;;;;2.00;1.00;;;4.60;99.90;;;;;;4970459;28;20489;-65
2023/12/23 13:05:06;;;;;;;1.30;1.20;;;4.60;99.90;;;;;;4978425;28;20919;-65